Aviation Digital Data Service (ADDS)

Output produced by METARs form (1805 UTC 01 September 2015)
found at http://aviationweather.gov/adds/metars/
 
KARA 011735Z 0118/0218 VRB05KT P6SM VCTS SCT025CB SCT040 BKN200 
     FM020100 00000KT P6SM FEW040 BKN150 
     FM021500 VRB05KT P6SM SCT025 BKN100